sensor_id;sensor_type;location;lat;lon;timestamp;P1;durP1;ratioP1;P2;durP2;ratioP2
32705;SDS011;19094;50.972;3.538;2023-04-16T00:02:06;13.75;;;4.00;;
32705;SDS011;19094;50.972;3.538;2023-04-16T00:04:32;12.93;;;5.10;;
32705;SDS011;19094;50.972;3.538;2023-04-16T00:06:57;11.30;;;3.67;;
32705;SDS011;19094;50.972;3.538;2023-04-16T00:09:23;16.50;;;4.53;;
32705;SDS011;19094;50.972;3.538;2023-04-16T00:11:49;12.18;;;3.92;;
32705;SDS011;19094;50.972;3.538;2023-04-16T00:14:14;12.40;;;4.18;;
32705;SDS011;19094;50.972;3.538;2023-04-16T00:16:40;11.85;;;3.70;;
32705;SDS011;19094;50.972;3.538;2023-04-16T00:19:06;17.33;;;4.25;;
32705;SDS011;19094;50.972;3.538;2023-04-16T00:21:31;11.65;;;3.90;;
32705;SDS011;19094;50.972;3.538;2023-04-16T00:23:57;11.98;;;3.72;;
32705;SDS011;19094;50.972;3.538;2023-04-16T00:26:23;18.50;;;3.80;;
32705;SDS011;19094;50.972;3.538;2023-04-16T00:28:48;14.30;;;3.92;;
32705;SDS011;19094;50.972;3.538;2023-04-16T00:31:14;13.70;;;3.90;;
32705;SDS011;19094;50.972;3.538;2023-04-16T00:33:39;12.88;;;4.13;;
32705;SDS011;19094;50.972;3.538;2023-04-16T00:36:05;10.80;;;3.90;;
32705;SDS011;19094;50.972;3.538;2023-04-16T00:38:31;16.58;;;4.05;;
32705;SDS011;19094;50.972;3.538;2023-04-16T00:40:57;18.38;;;4.40;;
32705;SDS011;19094;50.972;3.538;2023-04-16T00:43:23;12.07;;;3.90;;
32705;SDS011;19094;50.972;3.538;2023-04-16T00:45:51;13.63;;;4.07;;
32705;SDS011;19094;50.972;3.538;2023-04-16T00:48:17;10.85;;;4.25;;
32705;SDS011;19094;50.972;3.538;2023-04-16T00:50:45;11.95;;;5.03;;
32705;SDS011;19094;50.972;3.538;2023-04-16T00:53:11;15.23;;;3.83;;
32705;SDS011;19094;50.972;3.538;2023-04-16T00:55:37;10.38;;;3.85;;
32705;SDS011;19094;50.972;3.538;2023-04-16T00:58:03;11.20;;;3.65;;
32705;SDS011;19094;50.972;3.538;2023-04-16T01:00:29;11.48;;;3.80;;
32705;SDS011;19094;50.972;3.538;2023-04-16T01:02:55;13.45;;;3.75;;
32705;SDS011;19094;50.972;3.538;2023-04-16T01:05:20;12.95;;;3.72;;
32705;SDS011;19094;50.972;3.538;2023-04-16T01:07:46;10.68;;;3.42;;
32705;SDS011;19094;50.972;3.538;2023-04-16T01:10:12;13.23;;;4.10;;
32705;SDS011;19094;50.972;3.538;2023-04-16T01:12:37;13.02;;;4.25;;
32705;SDS011;19094;50.972;3.538;2023-04-16T01:15:03;20.20;;;3.78;;
32705;SDS011;19094;50.972;3.538;2023-04-16T01:17:29;12.90;;;3.47;;
32705;SDS011;19094;50.972;3.538;2023-04-16T01:19:57;13.88;;;3.53;;
32705;SDS011;19094;50.972;3.538;2023-04-16T01:22:24;11.55;;;3.47;;
32705;SDS011;19094;50.972;3.538;2023-04-16T01:24:49;14.68;;;3.92;;
32705;SDS011;19094;50.972;3.538;2023-04-16T01:27:15;15.68;;;4.00;;
32705;SDS011;19094;50.972;3.538;2023-04-16T01:29:40;15.05;;;4.25;;
32705;SDS011;19094;50.972;3.538;2023-04-16T01:32:06;12.73;;;4.28;;
32705;SDS011;19094;50.972;3.538;2023-04-16T01:34:32;19.05;;;4.55;;
32705;SDS011;19094;50.972;3.538;2023-04-16T01:36:57;11.68;;;3.63;;
32705;SDS011;19094;50.972;3.538;2023-04-16T01:39:23;19.08;;;3.50;;
32705;SDS011;19094;50.972;3.538;2023-04-16T01:41:49;16.40;;;3.35;;
32705;SDS011;19094;50.972;3.538;2023-04-16T01:44:14;10.65;;;3.20;;
32705;SDS011;19094;50.972;3.538;2023-04-16T01:46:40;10.50;;;3.35;;
32705;SDS011;19094;50.972;3.538;2023-04-16T01:49:05;14.48;;;3.10;;
32705;SDS011;19094;50.972;3.538;2023-04-16T01:51:31;11.93;;;3.20;;
32705;SDS011;19094;50.972;3.538;2023-04-16T01:53:57;11.18;;;3.17;;
32705;SDS011;19094;50.972;3.538;2023-04-16T01:56:23;11.45;;;2.80;;
32705;SDS011;19094;50.972;3.538;2023-04-16T01:58:49;12.95;;;3.63;;
32705;SDS011;19094;50.972;3.538;2023-04-16T02:01:14;17.50;;;3.10;;
32705;SDS011;19094;50.972;3.538;2023-04-16T02:03:40;18.52;;;3.38;;
32705;SDS011;19094;50.972;3.538;2023-04-16T02:06:06;13.90;;;3.30;;
32705;SDS011;19094;50.972;3.538;2023-04-16T02:08:32;9.95;;;3.13;;
32705;SDS011;19094;50.972;3.538;2023-04-16T02:10:58;15.55;;;3.60;;
32705;SDS011;19094;50.972;3.538;2023-04-16T02:13:24;17.30;;;3.47;;
32705;SDS011;19094;50.972;3.538;2023-04-16T02:15:50;8.85;;;3.35;;
32705;SDS011;19094;50.972;3.538;2023-04-16T02:18:16;18.35;;;4.10;;
32705;SDS011;19094;50.972;3.538;2023-04-16T02:20:43;14.00;;;3.47;;
32705;SDS011;19094;50.972;3.538;2023-04-16T02:23:10;17.33;;;3.97;;
32705;SDS011;19094;50.972;3.538;2023-04-16T02:25:42;11.30;;;3.55;;
32705;SDS011;19094;50.972;3.538;2023-04-16T02:28:12;13.13;;;3.85;;
32705;SDS011;19094;50.972;3.538;2023-04-16T02:30:39;8.02;;;3.47;;
32705;SDS011;19094;50.972;3.538;2023-04-16T02:33:06;8.98;;;3.33;;
32705;SDS011;19094;50.972;3.538;2023-04-16T02:35:33;12.13;;;3.80;;
32705;SDS011;19094;50.972;3.538;2023-04-16T02:37:59;15.70;;;3.10;;
32705;SDS011;19094;50.972;3.538;2023-04-16T02:40:25;9.88;;;3.10;;
32705;SDS011;19094;50.972;3.538;2023-04-16T02:42:52;9.55;;;3.05;;
32705;SDS011;19094;50.972;3.538;2023-04-16T02:45:18;8.70;;;3.08;;
32705;SDS011;19094;50.972;3.538;2023-04-16T02:47:44;12.07;;;3.45;;
32705;SDS011;19094;50.972;3.538;2023-04-16T02:50:10;14.52;;;3.05;;
32705;SDS011;19094;50.972;3.538;2023-04-16T02:52:36;14.25;;;3.42;;
32705;SDS011;19094;50.972;3.538;2023-04-16T02:55:02;12.57;;;3.15;;
32705;SDS011;19094;50.972;3.538;2023-04-16T02:57:27;8.32;;;2.67;;
32705;SDS011;19094;50.972;3.538;2023-04-16T02:59:53;9.10;;;2.75;;
32705;SDS011;19094;50.972;3.538;2023-04-16T03:02:19;10.05;;;2.80;;
32705;SDS011;19094;50.972;3.538;2023-04-16T03:04:44;16.42;;;3.25;;
32705;SDS011;19094;50.972;3.538;2023-04-16T03:07:10;12.07;;;2.92;;
32705;SDS011;19094;50.972;3.538;2023-04-16T03:09:37;6.22;;;2.60;;
32705;SDS011;19094;50.972;3.538;2023-04-16T03:12:02;12.77;;;2.70;;
32705;SDS011;19094;50.972;3.538;2023-04-16T03:14:29;5.95;;;2.40;;
32705;SDS011;19094;50.972;3.538;2023-04-16T03:16:55;8.57;;;2.88;;
32705;SDS011;19094;50.972;3.538;2023-04-16T03:19:21;10.30;;;2.55;;
32705;SDS011;19094;50.972;3.538;2023-04-16T03:21:46;8.52;;;2.50;;
32705;SDS011;19094;50.972;3.538;2023-04-16T03:24:12;11.35;;;2.60;;
32705;SDS011;19094;50.972;3.538;2023-04-16T03:26:38;17.42;;;2.88;;
32705;SDS011;19094;50.972;3.538;2023-04-16T03:29:03;14.75;;;2.97;;
32705;SDS011;19094;50.972;3.538;2023-04-16T03:31:29;10.43;;;2.90;;
32705;SDS011;19094;50.972;3.538;2023-04-16T03:33:55;12.13;;;2.53;;
32705;SDS011;19094;50.972;3.538;2023-04-16T03:36:21;8.40;;;2.55;;
32705;SDS011;19094;50.972;3.538;2023-04-16T03:38:47;7.28;;;2.60;;
32705;SDS011;19094;50.972;3.538;2023-04-16T03:41:13;8.43;;;2.80;;
32705;SDS011;19094;50.972;3.538;2023-04-16T03:43:39;14.93;;;2.83;;
32705;SDS011;19094;50.972;3.538;2023-04-16T03:46:04;9.27;;;2.38;;
32705;SDS011;19094;50.972;3.538;2023-04-16T03:48:30;15.38;;;2.60;;
32705;SDS011;19094;50.972;3.538;2023-04-16T03:50:56;16.08;;;2.97;;
32705;SDS011;19094;50.972;3.538;2023-04-16T03:53:21;19.45;;;2.60;;
32705;SDS011;19094;50.972;3.538;2023-04-16T03:55:50;23.80;;;3.03;;
32705;SDS011;19094;50.972;3.538;2023-04-16T03:58:16;13.25;;;2.60;;
32705;SDS011;19094;50.972;3.538;2023-04-16T04:00:43;13.75;;;2.55;;
32705;SDS011;19094;50.972;3.538;2023-04-16T04:03:09;11.82;;;2.28;;
32705;SDS011;19094;50.972;3.538;2023-04-16T04:05:36;14.95;;;2.15;;
32705;SDS011;19094;50.972;3.538;2023-04-16T04:08:05;16.05;;;3.13;;
32705;SDS011;19094;50.972;3.538;2023-04-16T04:10:32;9.70;;;2.20;;
32705;SDS011;19094;50.972;3.538;2023-04-16T04:12:58;8.77;;;2.60;;
32705;SDS011;19094;50.972;3.538;2023-04-16T04:15:25;9.25;;;2.20;;
32705;SDS011;19094;50.972;3.538;2023-04-16T04:17:50;5.28;;;2.20;;
32705;SDS011;19094;50.972;3.538;2023-04-16T04:20:16;10.63;;;2.50;;
32705;SDS011;19094;50.972;3.538;2023-04-16T04:22:41;8.00;;;2.38;;
32705;SDS011;19094;50.972;3.538;2023-04-16T04:25:08;12.63;;;2.30;;
32705;SDS011;19094;50.972;3.538;2023-04-16T04:27:34;8.55;;;2.75;;
32705;SDS011;19094;50.972;3.538;2023-04-16T04:30:01;7.97;;;2.95;;
32705;SDS011;19094;50.972;3.538;2023-04-16T04:32:28;11.77;;;2.67;;
32705;SDS011;19094;50.972;3.538;2023-04-16T04:34:54;12.32;;;2.80;;
32705;SDS011;19094;50.972;3.538;2023-04-16T04:37:19;8.75;;;2.55;;
32705;SDS011;19094;50.972;3.538;2023-04-16T04:39:45;13.68;;;2.97;;
32705;SDS011;19094;50.972;3.538;2023-04-16T04:42:11;14.20;;;3.15;;
32705;SDS011;19094;50.972;3.538;2023-04-16T04:44:36;12.32;;;3.53;;
32705;SDS011;19094;50.972;3.538;2023-04-16T04:47:02;13.68;;;2.83;;
32705;SDS011;19094;50.972;3.538;2023-04-16T04:49:28;10.82;;;3.15;;
32705;SDS011;19094;50.972;3.538;2023-04-16T04:51:54;11.38;;;3.05;;
32705;SDS011;19094;50.972;3.538;2023-04-16T04:54:20;10.95;;;2.38;;
32705;SDS011;19094;50.972;3.538;2023-04-16T04:56:46;14.23;;;3.22;;
32705;SDS011;19094;50.972;3.538;2023-04-16T04:59:11;15.82;;;3.70;;
32705;SDS011;19094;50.972;3.538;2023-04-16T05:01:37;13.32;;;2.90;;
32705;SDS011;19094;50.972;3.538;2023-04-16T05:04:03;15.15;;;3.55;;
32705;SDS011;19094;50.972;3.538;2023-04-16T05:06:29;15.10;;;2.97;;
32705;SDS011;19094;50.972;3.538;2023-04-16T05:08:55;14.27;;;2.95;;
32705;SDS011;19094;50.972;3.538;2023-04-16T05:11:21;8.25;;;3.22;;
32705;SDS011;19094;50.972;3.538;2023-04-16T05:13:46;11.85;;;3.47;;
32705;SDS011;19094;50.972;3.538;2023-04-16T05:16:12;8.30;;;3.25;;
32705;SDS011;19094;50.972;3.538;2023-04-16T05:18:37;14.80;;;3.75;;
32705;SDS011;19094;50.972;3.538;2023-04-16T05:21:03;12.07;;;3.90;;
32705;SDS011;19094;50.972;3.538;2023-04-16T05:23:29;13.68;;;3.30;;
32705;SDS011;19094;50.972;3.538;2023-04-16T05:25:55;18.15;;;3.55;;
32705;SDS011;19094;50.972;3.538;2023-04-16T05:28:21;9.85;;;3.63;;
32705;SDS011;19094;50.972;3.538;2023-04-16T05:30:46;15.48;;;3.17;;
32705;SDS011;19094;50.972;3.538;2023-04-16T05:33:12;14.93;;;3.13;;
32705;SDS011;19094;50.972;3.538;2023-04-16T05:35:37;8.55;;;3.63;;
32705;SDS011;19094;50.972;3.538;2023-04-16T05:38:03;8.40;;;3.60;;
32705;SDS011;19094;50.972;3.538;2023-04-16T05:40:30;9.60;;;3.53;;
32705;SDS011;19094;50.972;3.538;2023-04-16T05:42:56;7.97;;;3.25;;
32705;SDS011;19094;50.972;3.538;2023-04-16T05:45:21;7.78;;;3.50;;
32705;SDS011;19094;50.972;3.538;2023-04-16T05:47:47;15.63;;;4.03;;
32705;SDS011;19094;50.972;3.538;2023-04-16T05:50:12;14.57;;;3.88;;
32705;SDS011;19094;50.972;3.538;2023-04-16T05:52:38;8.15;;;2.50;;
32705;SDS011;19094;50.972;3.538;2023-04-16T05:55:04;9.60;;;2.58;;
32705;SDS011;19094;50.972;3.538;2023-04-16T05:57:31;7.78;;;2.47;;
32705;SDS011;19094;50.972;3.538;2023-04-16T05:59:57;8.15;;;2.83;;
32705;SDS011;19094;50.972;3.538;2023-04-16T06:02:23;10.38;;;2.33;;
32705;SDS011;19094;50.972;3.538;2023-04-16T06:04:49;8.65;;;2.33;;
32705;SDS011;19094;50.972;3.538;2023-04-16T06:07:14;6.60;;;2.45;;
32705;SDS011;19094;50.972;3.538;2023-04-16T06:09:40;7.20;;;2.25;;
32705;SDS011;19094;50.972;3.538;2023-04-16T06:12:06;10.02;;;2.40;;
32705;SDS011;19094;50.972;3.538;2023-04-16T06:14:31;4.05;;;2.08;;
32705;SDS011;19094;50.972;3.538;2023-04-16T06:16:57;11.57;;;2.88;;
32705;SDS011;19094;50.972;3.538;2023-04-16T06:19:23;10.50;;;2.33;;
32705;SDS011;19094;50.972;3.538;2023-04-16T06:21:49;7.45;;;2.28;;
32705;SDS011;19094;50.972;3.538;2023-04-16T06:24:14;9.35;;;2.20;;
32705;SDS011;19094;50.972;3.538;2023-04-16T06:26:42;5.60;;;1.98;;
32705;SDS011;19094;50.972;3.538;2023-04-16T06:29:08;9.20;;;2.20;;
32705;SDS011;19094;50.972;3.538;2023-04-16T06:31:34;5.57;;;1.85;;
32705;SDS011;19094;50.972;3.538;2023-04-16T06:33:59;9.23;;;2.10;;
32705;SDS011;19094;50.972;3.538;2023-04-16T06:36:25;4.90;;;1.75;;
32705;SDS011;19094;50.972;3.538;2023-04-16T06:38:51;10.70;;;2.47;;
32705;SDS011;19094;50.972;3.538;2023-04-16T06:41:17;6.88;;;1.60;;
32705;SDS011;19094;50.972;3.538;2023-04-16T06:43:43;5.53;;;1.60;;
32705;SDS011;19094;50.972;3.538;2023-04-16T06:46:08;8.10;;;2.00;;
32705;SDS011;19094;50.972;3.538;2023-04-16T06:48:35;6.97;;;2.08;;
32705;SDS011;19094;50.972;3.538;2023-04-16T06:51:00;7.80;;;2.10;;
32705;SDS011;19094;50.972;3.538;2023-04-16T06:53:26;5.82;;;1.83;;
32705;SDS011;19094;50.972;3.538;2023-04-16T06:55:52;7.38;;;2.03;;
32705;SDS011;19094;50.972;3.538;2023-04-16T06:58:17;6.57;;;1.90;;
32705;SDS011;19094;50.972;3.538;2023-04-16T07:00:43;7.00;;;2.08;;
32705;SDS011;19094;50.972;3.538;2023-04-16T07:03:09;12.13;;;2.70;;
32705;SDS011;19094;50.972;3.538;2023-04-16T07:05:35;4.95;;;1.70;;
32705;SDS011;19094;50.972;3.538;2023-04-16T07:08:01;7.20;;;2.17;;
32705;SDS011;19094;50.972;3.538;2023-04-16T07:10:26;6.70;;;2.13;;
32705;SDS011;19094;50.972;3.538;2023-04-16T07:12:52;5.47;;;2.20;;
32705;SDS011;19094;50.972;3.538;2023-04-16T07:15:18;7.70;;;2.25;;
32705;SDS011;19094;50.972;3.538;2023-04-16T07:17:44;4.93;;;1.90;;
32705;SDS011;19094;50.972;3.538;2023-04-16T07:20:09;11.05;;;2.03;;
32705;SDS011;19094;50.972;3.538;2023-04-16T07:22:35;10.43;;;2.22;;
32705;SDS011;19094;50.972;3.538;2023-04-16T07:25:01;14.13;;;2.70;;
32705;SDS011;19094;50.972;3.538;2023-04-16T07:27:26;10.80;;;2.63;;
32705;SDS011;19094;50.972;3.538;2023-04-16T07:29:52;12.90;;;2.78;;
32705;SDS011;19094;50.972;3.538;2023-04-16T07:32:20;7.40;;;2.35;;
32705;SDS011;19094;50.972;3.538;2023-04-16T07:34:46;12.05;;;2.40;;
32705;SDS011;19094;50.972;3.538;2023-04-16T07:37:12;7.68;;;2.10;;
32705;SDS011;19094;50.972;3.538;2023-04-16T07:39:37;9.65;;;2.20;;
32705;SDS011;19094;50.972;3.538;2023-04-16T07:42:03;6.95;;;1.92;;
32705;SDS011;19094;50.972;3.538;2023-04-16T07:44:28;8.40;;;2.33;;
32705;SDS011;19094;50.972;3.538;2023-04-16T07:46:54;6.35;;;2.00;;
32705;SDS011;19094;50.972;3.538;2023-04-16T07:49:20;7.47;;;2.50;;
32705;SDS011;19094;50.972;3.538;2023-04-16T07:51:45;9.63;;;2.10;;
32705;SDS011;19094;50.972;3.538;2023-04-16T07:54:11;6.45;;;2.20;;
32705;SDS011;19094;50.972;3.538;2023-04-16T07:56:37;6.85;;;1.98;;
32705;SDS011;19094;50.972;3.538;2023-04-16T07:59:03;5.05;;;1.95;;
32705;SDS011;19094;50.972;3.538;2023-04-16T08:01:28;6.13;;;2.25;;
32705;SDS011;19094;50.972;3.538;2023-04-16T08:03:54;8.02;;;2.38;;
32705;SDS011;19094;50.972;3.538;2023-04-16T08:06:20;6.78;;;2.10;;
32705;SDS011;19094;50.972;3.538;2023-04-16T08:08:46;5.18;;;1.88;;
32705;SDS011;19094;50.972;3.538;2023-04-16T08:11:11;6.45;;;2.78;;
32705;SDS011;19094;50.972;3.538;2023-04-16T08:13:37;6.28;;;1.60;;
32705;SDS011;19094;50.972;3.538;2023-04-16T08:16:03;4.53;;;1.70;;
32705;SDS011;19094;50.972;3.538;2023-04-16T08:18:29;5.20;;;1.65;;
32705;SDS011;19094;50.972;3.538;2023-04-16T08:20:54;7.35;;;1.90;;
32705;SDS011;19094;50.972;3.538;2023-04-16T08:23:20;4.07;;;2.05;;
32705;SDS011;19094;50.972;3.538;2023-04-16T08:25:46;8.75;;;2.03;;
32705;SDS011;19094;50.972;3.538;2023-04-16T08:28:12;5.72;;;1.90;;
32705;SDS011;19094;50.972;3.538;2023-04-16T08:30:37;6.40;;;1.75;;
32705;SDS011;19094;50.972;3.538;2023-04-16T08:33:03;6.03;;;2.33;;
32705;SDS011;19094;50.972;3.538;2023-04-16T08:35:29;10.95;;;2.72;;
32705;SDS011;19094;50.972;3.538;2023-04-16T08:37:55;8.48;;;2.17;;
32705;SDS011;19094;50.972;3.538;2023-04-16T08:40:22;4.38;;;2.13;;
32705;SDS011;19094;50.972;3.538;2023-04-16T08:42:53;7.57;;;1.92;;
32705;SDS011;19094;50.972;3.538;2023-04-16T08:45:20;8.93;;;1.67;;
32705;SDS011;19094;50.972;3.538;2023-04-16T08:47:47;7.00;;;1.70;;
32705;SDS011;19094;50.972;3.538;2023-04-16T08:50:14;5.88;;;1.90;;
32705;SDS011;19094;50.972;3.538;2023-04-16T08:52:59;5.28;;;1.90;;
32705;SDS011;19094;50.972;3.538;2023-04-16T08:55:31;8.23;;;2.08;;
32705;SDS011;19094;50.972;3.538;2023-04-16T08:58:03;8.80;;;2.13;;
32705;SDS011;19094;50.972;3.538;2023-04-16T09:00:39;11.65;;;2.55;;
32705;SDS011;19094;50.972;3.538;2023-04-16T09:03:05;15.07;;;3.25;;
32705;SDS011;19094;50.972;3.538;2023-04-16T09:05:32;14.98;;;2.70;;
32705;SDS011;19094;50.972;3.538;2023-04-16T09:07:58;6.35;;;2.72;;
32705;SDS011;19094;50.972;3.538;2023-04-16T09:10:24;9.77;;;3.20;;
32705;SDS011;19094;50.972;3.538;2023-04-16T09:12:51;14.15;;;3.38;;
32705;SDS011;19094;50.972;3.538;2023-04-16T09:15:19;7.40;;;2.28;;
32705;SDS011;19094;50.972;3.538;2023-04-16T09:17:45;10.85;;;2.53;;
32705;SDS011;19094;50.972;3.538;2023-04-16T09:20:11;15.68;;;2.88;;
32705;SDS011;19094;50.972;3.538;2023-04-16T09:22:36;9.45;;;2.20;;
32705;SDS011;19094;50.972;3.538;2023-04-16T09:25:04;9.98;;;3.10;;
32705;SDS011;19094;50.972;3.538;2023-04-16T09:27:30;6.35;;;1.95;;
32705;SDS011;19094;50.972;3.538;2023-04-16T09:29:56;10.00;;;2.55;;
32705;SDS011;19094;50.972;3.538;2023-04-16T09:32:25;10.73;;;2.53;;
32705;SDS011;19094;50.972;3.538;2023-04-16T09:34:53;6.63;;;1.98;;
32705;SDS011;19094;50.972;3.538;2023-04-16T09:37:21;7.03;;;2.22;;
32705;SDS011;19094;50.972;3.538;2023-04-16T09:39:54;8.07;;;2.55;;
32705;SDS011;19094;50.972;3.538;2023-04-16T09:42:25;8.50;;;2.80;;
32705;SDS011;19094;50.972;3.538;2023-04-16T09:44:53;7.43;;;2.10;;
32705;SDS011;19094;50.972;3.538;2023-04-16T09:47:20;7.15;;;2.08;;
32705;SDS011;19094;50.972;3.538;2023-04-16T09:49:46;6.43;;;2.30;;
32705;SDS011;19094;50.972;3.538;2023-04-16T09:52:19;6.68;;;2.17;;
32705;SDS011;19094;50.972;3.538;2023-04-16T09:54:50;7.30;;;2.30;;
32705;SDS011;19094;50.972;3.538;2023-04-16T09:57:17;6.47;;;2.45;;
32705;SDS011;19094;50.972;3.538;2023-04-16T09:59:45;6.78;;;2.80;;
32705;SDS011;19094;50.972;3.538;2023-04-16T10:02:10;11.80;;;2.92;;
32705;SDS011;19094;50.972;3.538;2023-04-16T10:04:44;6.88;;;2.95;;
32705;SDS011;19094;50.972;3.538;2023-04-16T10:07:19;6.80;;;2.65;;
32705;SDS011;19094;50.972;3.538;2023-04-16T10:09:46;4.10;;;2.08;;
32705;SDS011;19094;50.972;3.538;2023-04-16T10:12:12;4.85;;;1.90;;
32705;SDS011;19094;50.972;3.538;2023-04-16T10:14:39;6.00;;;1.73;;
32705;SDS011;19094;50.972;3.538;2023-04-16T10:17:06;8.88;;;2.20;;
32705;SDS011;19094;50.972;3.538;2023-04-16T10:19:33;6.82;;;2.50;;
32705;SDS011;19094;50.972;3.538;2023-04-16T10:21:59;5.50;;;1.70;;
32705;SDS011;19094;50.972;3.538;2023-04-16T10:24:25;12.55;;;2.35;;
32705;SDS011;19094;50.972;3.538;2023-04-16T10:26:53;8.73;;;2.63;;
32705;SDS011;19094;50.972;3.538;2023-04-16T10:29:20;8.27;;;2.20;;
32705;SDS011;19094;50.972;3.538;2023-04-16T10:31:46;8.60;;;2.45;;
32705;SDS011;19094;50.972;3.538;2023-04-16T10:34:13;8.63;;;2.20;;
32705;SDS011;19094;50.972;3.538;2023-04-16T10:36:40;7.05;;;2.30;;
32705;SDS011;19094;50.972;3.538;2023-04-16T10:39:09;9.57;;;2.20;;
32705;SDS011;19094;50.972;3.538;2023-04-16T10:41:37;6.85;;;2.60;;
32705;SDS011;19094;50.972;3.538;2023-04-16T10:44:04;7.95;;;2.65;;
32705;SDS011;19094;50.972;3.538;2023-04-16T10:46:36;6.22;;;2.95;;
32705;SDS011;19094;50.972;3.538;2023-04-16T10:51:39;7.15;;;2.28;;
32705;SDS011;19094;50.972;3.538;2023-04-16T10:56:36;10.23;;;3.08;;
32705;SDS011;19094;50.972;3.538;2023-04-16T10:59:08;7.13;;;3.20;;
32705;SDS011;19094;50.972;3.538;2023-04-16T11:01:36;11.20;;;2.97;;
32705;SDS011;19094;50.972;3.538;2023-04-16T11:12:24;12.10;;;3.55;;
32705;SDS011;19094;50.972;3.538;2023-04-16T11:14:52;7.68;;;3.53;;
32705;SDS011;19094;50.972;3.538;2023-04-16T11:17:26;6.55;;;2.17;;
32705;SDS011;19094;50.972;3.538;2023-04-16T11:19:56;8.80;;;4.00;;
32705;SDS011;19094;50.972;3.538;2023-04-16T11:22:22;8.00;;;2.97;;
32705;SDS011;19094;50.972;3.538;2023-04-16T11:24:52;14.02;;;4.57;;
32705;SDS011;19094;50.972;3.538;2023-04-16T11:27:24;22.23;;;8.35;;
32705;SDS011;19094;50.972;3.538;2023-04-16T11:30:00;10.25;;;4.35;;
32705;SDS011;19094;50.972;3.538;2023-04-16T11:32:31;8.68;;;4.30;;
32705;SDS011;19094;50.972;3.538;2023-04-16T11:34:58;13.32;;;3.30;;
32705;SDS011;19094;50.972;3.538;2023-04-16T11:37:35;8.60;;;3.17;;
32705;SDS011;19094;50.972;3.538;2023-04-16T11:40:02;45.45;;;5.18;;
32705;SDS011;19094;50.972;3.538;2023-04-16T11:42:30;10.45;;;3.38;;
32705;SDS011;19094;50.972;3.538;2023-04-16T11:44:57;6.68;;;3.00;;
32705;SDS011;19094;50.972;3.538;2023-04-16T11:47:27;6.32;;;2.33;;
32705;SDS011;19094;50.972;3.538;2023-04-16T11:49:54;6.88;;;3.53;;
32705;SDS011;19094;50.972;3.538;2023-04-16T11:52:23;5.70;;;2.72;;
32705;SDS011;19094;50.972;3.538;2023-04-16T11:54:54;8.93;;;2.83;;
32705;SDS011;19094;50.972;3.538;2023-04-16T11:57:37;6.90;;;3.10;;
32705;SDS011;19094;50.972;3.538;2023-04-16T12:00:03;3.92;;;2.42;;
32705;SDS011;19094;50.972;3.538;2023-04-16T12:02:48;13.35;;;3.30;;
32705;SDS011;19094;50.972;3.538;2023-04-16T12:07:53;6.38;;;3.15;;
32705;SDS011;19094;50.972;3.538;2023-04-16T12:10:19;5.95;;;3.30;;
32705;SDS011;19094;50.972;3.538;2023-04-16T12:12:44;6.97;;;3.17;;
32705;SDS011;19094;50.972;3.538;2023-04-16T12:15:10;9.90;;;3.42;;
32705;SDS011;19094;50.972;3.538;2023-04-16T12:17:36;10.20;;;3.63;;
32705;SDS011;19094;50.972;3.538;2023-04-16T12:20:03;8.55;;;3.80;;
32705;SDS011;19094;50.972;3.538;2023-04-16T12:22:46;10.60;;;4.63;;
32705;SDS011;19094;50.972;3.538;2023-04-16T12:25:14;6.90;;;3.63;;
32705;SDS011;19094;50.972;3.538;2023-04-16T12:30:10;11.50;;;4.20;;
32705;SDS011;19094;50.972;3.538;2023-04-16T12:32:37;10.55;;;4.00;;
32705;SDS011;19094;50.972;3.538;2023-04-16T12:35:03;10.82;;;3.65;;
32705;SDS011;19094;50.972;3.538;2023-04-16T12:37:29;6.10;;;3.88;;
32705;SDS011;19094;50.972;3.538;2023-04-16T12:39:55;14.15;;;4.40;;
32705;SDS011;19094;50.972;3.538;2023-04-16T12:42:21;10.57;;;4.28;;
32705;SDS011;19094;50.972;3.538;2023-04-16T12:44:46;7.95;;;3.90;;
32705;SDS011;19094;50.972;3.538;2023-04-16T12:47:12;9.75;;;4.35;;
32705;SDS011;19094;50.972;3.538;2023-04-16T12:49:38;11.63;;;4.10;;
32705;SDS011;19094;50.972;3.538;2023-04-16T12:52:03;9.93;;;4.30;;
32705;SDS011;19094;50.972;3.538;2023-04-16T12:54:30;12.57;;;4.47;;
32705;SDS011;19094;50.972;3.538;2023-04-16T12:56:56;12.10;;;4.55;;
32705;SDS011;19094;50.972;3.538;2023-04-16T12:59:22;10.68;;;4.22;;
32705;SDS011;19094;50.972;3.538;2023-04-16T13:01:48;11.23;;;3.92;;
32705;SDS011;19094;50.972;3.538;2023-04-16T13:04:14;7.97;;;4.18;;
32705;SDS011;19094;50.972;3.538;2023-04-16T13:06:40;12.30;;;4.55;;
32705;SDS011;19094;50.972;3.538;2023-04-16T13:09:05;12.73;;;4.65;;
32705;SDS011;19094;50.972;3.538;2023-04-16T13:11:31;10.93;;;4.65;;
32705;SDS011;19094;50.972;3.538;2023-04-16T13:13:57;9.73;;;4.32;;
32705;SDS011;19094;50.972;3.538;2023-04-16T13:16:23;7.38;;;4.13;;
32705;SDS011;19094;50.972;3.538;2023-04-16T13:18:48;14.10;;;3.85;;
32705;SDS011;19094;50.972;3.538;2023-04-16T13:21:14;11.13;;;3.42;;
32705;SDS011;19094;50.972;3.538;2023-04-16T13:23:40;9.23;;;4.38;;
32705;SDS011;19094;50.972;3.538;2023-04-16T13:26:05;9.90;;;4.32;;
32705;SDS011;19094;50.972;3.538;2023-04-16T13:28:31;9.23;;;3.38;;
32705;SDS011;19094;50.972;3.538;2023-04-16T13:30:57;10.07;;;3.85;;
32705;SDS011;19094;50.972;3.538;2023-04-16T13:33:23;8.52;;;3.88;;
32705;SDS011;19094;50.972;3.538;2023-04-16T13:35:48;9.07;;;3.70;;
32705;SDS011;19094;50.972;3.538;2023-04-16T13:38:15;9.32;;;3.80;;
32705;SDS011;19094;50.972;3.538;2023-04-16T13:40:41;7.55;;;3.70;;
32705;SDS011;19094;50.972;3.538;2023-04-16T13:43:07;6.30;;;3.40;;
32705;SDS011;19094;50.972;3.538;2023-04-16T13:45:32;6.82;;;3.30;;
32705;SDS011;19094;50.972;3.538;2023-04-16T13:47:58;6.05;;;3.55;;
32705;SDS011;19094;50.972;3.538;2023-04-16T13:50:24;9.07;;;4.47;;
32705;SDS011;19094;50.972;3.538;2023-04-16T13:52:50;12.27;;;4.20;;
32705;SDS011;19094;50.972;3.538;2023-04-16T13:55:15;11.60;;;4.35;;
32705;SDS011;19094;50.972;3.538;2023-04-16T13:57:45;7.03;;;3.47;;
32705;SDS011;19094;50.972;3.538;2023-04-16T14:00:14;10.52;;;4.07;;
32705;SDS011;19094;50.972;3.538;2023-04-16T14:02:41;12.27;;;4.22;;
32705;SDS011;19094;50.972;3.538;2023-04-16T14:05:06;12.63;;;3.50;;
32705;SDS011;19094;50.972;3.538;2023-04-16T14:07:32;9.63;;;4.32;;
32705;SDS011;19094;50.972;3.538;2023-04-16T14:09:58;9.68;;;4.22;;
32705;SDS011;19094;50.972;3.538;2023-04-16T14:12:24;6.70;;;3.75;;
32705;SDS011;19094;50.972;3.538;2023-04-16T14:14:50;9.82;;;3.65;;
32705;SDS011;19094;50.972;3.538;2023-04-16T14:17:16;6.20;;;2.65;;
32705;SDS011;19094;50.972;3.538;2023-04-16T14:19:42;6.10;;;2.92;;
32705;SDS011;19094;50.972;3.538;2023-04-16T14:22:07;8.98;;;3.45;;
32705;SDS011;19094;50.972;3.538;2023-04-16T14:24:33;5.43;;;3.30;;
32705;SDS011;19094;50.972;3.538;2023-04-16T14:26:58;10.93;;;3.50;;
32705;SDS011;19094;50.972;3.538;2023-04-16T14:29:24;9.68;;;3.58;;
32705;SDS011;19094;50.972;3.538;2023-04-16T14:31:50;9.25;;;3.50;;
32705;SDS011;19094;50.972;3.538;2023-04-16T14:34:16;6.88;;;2.33;;
32705;SDS011;19094;50.972;3.538;2023-04-16T14:36:42;9.35;;;3.28;;
32705;SDS011;19094;50.972;3.538;2023-04-16T14:39:08;8.07;;;3.20;;
32705;SDS011;19094;50.972;3.538;2023-04-16T14:41:35;8.48;;;3.30;;
32705;SDS011;19094;50.972;3.538;2023-04-16T14:44:00;8.65;;;2.60;;
32705;SDS011;19094;50.972;3.538;2023-04-16T14:46:28;8.55;;;3.28;;
32705;SDS011;19094;50.972;3.538;2023-04-16T14:48:54;7.47;;;3.38;;
32705;SDS011;19094;50.972;3.538;2023-04-16T14:51:20;7.22;;;3.15;;
32705;SDS011;19094;50.972;3.538;2023-04-16T14:53:45;8.52;;;3.42;;
32705;SDS011;19094;50.972;3.538;2023-04-16T14:56:11;12.50;;;3.45;;